PAKU

Details ICAO PAKU (UUK)
Name Ugnu-Kuparuk
Region USA (Alaska)
Timezone America/Anchorage (UTC-9.0)
Plans Departing 1
Arriving 2
Stats Elevation 67 ft / 20 m (AMSL)
Location 70.330819° -149.597555°
Runways 1
Magnetic Variation 17.569° E
Sunrise Unknown / Unknown
Sunset Unknown / Unknown
Advertisement - Login to hide

Runways

ID Width Length Bearing (true) Bearing (mag) Surface Threshold Offset Overrun Length
05 130 ft / 40 m 6,006 ft / 1,831 m 78.98° 61.41° Gravel 0 ft / 0 m 0 ft / 0 m
23 130 ft / 40 m 6,006 ft / 1,831 m 259.02° 241.45° Gravel 0 ft / 0 m 0 ft / 0 m

Approach Navaids

Runway Type Ident Frequency Range Bearing (true) Bearing (mag) Slope Elevation
05 Localiser IIII 109.70 MHz 18 nm / 33 km 107.90° 90.33° - 67 ft / 20 m (AMSL)

Map

Weather


0- 5 10 15 20 25 30 35+ Temperature / ° C

Clouds and Precipitation
Forecast for 2017-12-13 18:00 UTC. Updated 2 hours ago

Ground ~20,000 ft ~40,000 ft Winds

METAR

PAKU 131353Z 07024KT 1/2SM R06/2800FT BLSN OVC005 M12/M14 A3007

TAF

Not found
Warning: Do not use this data for real-world aviation or navigation. No guarantee of current accuracy is given.